Time;durP1;ratioP1;P1;durP2;ratioP2;P2;SDS_P1;SDS_P2;PMS_P1;PMS_P2;Temp;Humidity;BMP_temperature;BMP_pressure;BME280_temperature;BME280_humidity;BME280_pressure;Samples;Min_cycle;Max_cycle;Signal;HPM_P1;HPM_P2
2023/05/22 00:26:09;;;;;;;0.68;0.60;;;;;;;3.86;100.00;99133.63;4821577;28;20272;-57
2023/05/22 00:28:40;;;;;;;1.87;0.50;;;;;;;3.81;100.00;99135.38;4822989;28;20275;-60
2023/05/22 00:35:13;;;;;;;0.60;0.60;;;;;;;4.04;100.00;99121.44;4747707;29;20059;-59
2023/05/22 00:37:47;;;;;;;1.48;0.60;;;;;;;4.10;100.00;99126.56;4746770;29;20597;-59
2023/05/22 00:40:28;;;;;;;1.20;0.65;;;;;;;4.16;100.00;99123.91;4739716;29;20266;-59
2023/05/22 00:43:07;;;;;;;0.98;0.70;;;;;;;4.12;100.00;99140.34;4749165;29;20143;-59
2023/05/22 00:45:53;;;;;;;0.50;0.50;;;;;;;4.21;100.00;99132.47;4738644;29;20056;-59
2023/05/22 00:48:32;;;;;;;0.70;0.70;;;;;;;4.17;100.00;99133.41;4736666;29;20061;-58
2023/05/22 00:51:05;;;;;;;1.25;0.60;;;;;;;4.07;100.00;99131.75;4743927;29;21111;-58
2023/05/22 00:53:41;;;;;;;0.50;0.50;;;;;;;4.00;100.00;99145.59;4748813;29;20119;-58
2023/05/22 00:56:17;;;;;;;3.03;0.60;;;;;;;4.05;100.00;99146.44;4743899;29;20073;-59
2023/05/22 00:58:53;;;;;;;0.85;0.60;;;;;;;4.00;100.00;99135.25;4748577;29;20057;-58
2023/05/22 01:01:32;;;;;;;1.45;0.70;;;;;;;3.92;100.00;99144.78;4742996;29;20148;-58
2023/05/22 01:04:06;;;;;;;0.55;0.50;;;;;;;3.92;100.00;99147.38;4747669;29;20470;-57
2023/05/22 01:06:40;;;;;;;1.63;0.60;;;;;;;3.64;100.00;99091.59;4748432;29;20048;-58
2023/05/22 01:09:10;;;;;;;0.77;0.63;;;;;;;4.05;100.00;99164.53;4750089;28;20068;-59
2023/05/22 01:11:56;;;;;;;2.88;0.70;;;;;;;4.04;100.00;99144.69;4831978;28;20060;-59
2023/05/22 01:14:37;;;;;;;0.50;0.50;;;;;;;4.17;100.00;99154.09;4821681;28;20140;-60
2023/05/22 01:17:26;;;;;;;0.60;0.60;;;;;;;4.02;100.00;99121.47;4822215;28;20054;-59
2023/05/22 01:20:09;;;;;;;1.88;0.80;;;;;;;4.20;100.00;99159.22;4821870;28;20108;-57
2023/05/22 01:23:10;;;;;;;0.60;0.60;;;;;;;4.28;100.00;99165.19;4822156;28;20054;-59
2023/05/22 01:26:10;;;;;;;1.50;0.70;;;;;;;4.35;100.00;99162.56;4832118;28;20367;-59
2023/05/22 01:29:09;;;;;;;1.58;0.70;;;;;;;4.38;100.00;99162.53;4832219;28;20089;-57
2023/05/22 01:31:44;;;;;;;0.60;0.60;;;;;;;4.43;100.00;99166.78;4821889;28;20061;-58
2023/05/22 01:34:17;;;;;;;1.85;0.60;;;;;;;4.24;100.00;99160.91;4824777;28;20058;-58
2023/05/22 01:36:52;;;;;;;0.85;0.60;;;;;;;4.21;100.00;99163.50;4832198;28;20074;-59
2023/05/22 01:39:23;;;;;;;0.73;0.60;;;;;;;4.00;100.00;99145.59;4829052;28;20459;-57
2023/05/22 01:41:54;;;;;;;1.20;0.60;;;;;;;3.98;100.00;99121.50;4831115;28;20048;-54
2023/05/22 01:44:25;;;;;;;0.95;0.70;;;;;;;4.30;100.00;99155.69;4834179;28;20131;-57
2023/05/22 01:47:04;;;;;;;1.05;0.68;;;;;;;4.28;100.00;99162.59;4831916;28;20093;-58
2023/05/22 01:49:35;;;;;;;1.27;0.60;;;;;;;4.48;100.00;99140.88;4825420;28;20909;-57
2023/05/22 01:52:13;;;;;;;0.57;0.57;;;;;;;4.42;100.00;99166.78;4831910;28;20499;-56
2023/05/22 01:54:54;;;;;;;2.20;1.02;;;;;;;4.49;100.00;99171.03;4821959;28;20050;-58
2023/05/22 01:57:29;;;;;;;0.60;0.60;;;;;;;4.59;100.00;99172.66;4824786;28;20059;-59
2023/05/22 02:00:08;;;;;;;1.17;0.52;;;;;;;4.67;99.84;99176.03;4832109;28;20097;-58
2023/05/22 02:02:45;;;;;;;0.50;0.50;;;;;;;4.71;100.00;99167.34;4822729;28;20062;-58
2023/05/22 02:05:21;;;;;;;2.03;0.70;;;;;;;4.79;100.00;99143.97;4821711;28;20448;-58
2023/05/22 02:07:55;;;;;;;2.72;0.95;;;;;;;4.60;100.00;99170.94;4831596;28;20552;-57
2023/05/22 02:10:28;;;;;;;2.00;1.10;;;;;;;4.47;100.00;99173.66;4823029;28;20065;-58
2023/05/22 02:13:04;;;;;;;1.25;0.70;;;;;;;4.43;100.00;99173.69;4828562;28;20736;-56
2023/05/22 02:15:35;;;;;;;2.45;0.73;;;;;;;4.37;100.00;99197.00;4831597;28;20108;-59
2023/05/22 02:18:12;;;;;;;0.60;0.60;;;;;;;4.19;100.00;99183.34;4832590;28;20068;-58
2023/05/22 02:20:43;;;;;;;0.50;0.50;;;;;;;4.19;100.00;99192.84;4830257;28;20060;-61
2023/05/22 02:23:15;;;;;;;2.47;0.70;;;;;;;4.17;100.00;99179.94;4827522;28;20404;-61
2023/05/22 02:25:46;;;;;;;0.63;0.60;;;;;;;4.19;100.00;99162.66;4831972;28;20551;-60
2023/05/22 02:28:20;;;;;;;3.13;0.60;;;;;;;4.42;100.00;99185.75;4831003;28;20536;-60
2023/05/22 02:30:51;;;;;;;1.42;0.52;;;;;;;4.47;100.00;99189.16;4831267;28;20481;-60
2023/05/22 02:33:28;;;;;;;0.70;0.70;;;;;;;4.54;100.00;99169.25;4831525;28;20096;-58
2023/05/22 02:35:59;;;;;;;0.65;0.65;;;;;;;4.71;99.82;99188.06;4822137;28;20050;-59
2023/05/22 02:38:38;;;;;;;1.95;0.70;;;;;;;4.64;100.00;99195.91;4829913;28;20058;-58
2023/05/22 02:41:09;;;;;;;1.67;0.60;;;;;;;4.49;97.56;99210.72;4820917;28;20073;-61
2023/05/22 02:43:42;;;;;;;0.60;0.60;;;;;;;4.59;100.00;99208.88;4831695;28;20046;-60
2023/05/22 02:46:15;;;;;;;0.63;0.63;;;;;;;4.69;99.34;99195.00;4828886;28;20392;-60
2023/05/22 02:48:56;;;;;;;0.50;0.50;;;;;;;4.82;100.00;99210.38;4820848;28;20058;-61
2023/05/22 02:51:31;;;;;;;2.50;0.70;;;;;;;4.49;100.00;99186.53;4820031;28;20058;-59
2023/05/22 02:54:02;;;;;;;0.68;0.50;;;;;;;4.47;97.92;99209.00;4829799;28;20492;-59
2023/05/22 02:56:35;;;;;;;0.73;0.60;;;;;;;4.39;98.99;99210.78;4830488;28;20061;-60
2023/05/22 02:59:38;;;;;;;0.60;0.60;;;;;;;4.57;100.00;99205.47;4821648;28;20053;-61
2023/05/22 03:02:11;;;;;;;0.85;0.80;;;;;;;4.48;98.63;99218.47;4821026;28;20524;-60
2023/05/22 03:04:45;;;;;;;1.23;0.60;;;;;;;4.33;100.00;99198.75;4830690;28;20429;-59
2023/05/22 03:07:19;;;;;;;1.38;0.50;;;;;;;4.00;99.95;99161.09;4821580;28;20046;-61
2023/05/22 03:09:49;;;;;;;2.22;0.95;;;;;;;4.22;100.00;99219.53;4830390;28;20054;-58
2023/05/22 03:12:20;;;;;;;1.65;0.80;;;;;;;4.07;99.90;99230.00;4830923;28;20061;-58
2023/05/22 03:14:53;;;;;;;0.52;0.52;;;;;;;3.81;100.00;99202.56;4831177;28;20101;-57
2023/05/22 03:17:24;;;;;;;1.40;0.70;;;;;;;3.86;100.00;99221.47;4828355;28;20068;-58
2023/05/22 03:19:56;;;;;;;0.50;0.50;;;;;;;3.90;100.00;99230.09;4831745;28;20062;-60
2023/05/22 03:22:30;;;;;;;0.75;0.55;;;;;;;4.00;100.00;99238.66;4831165;28;20054;-59
2023/05/22 03:25:01;;;;;;;1.25;0.60;;;;;;;3.99;100.00;99236.91;4830604;28;20054;-59
2023/05/22 03:27:32;;;;;;;2.35;0.70;;;;;;;3.93;100.00;99242.13;4834027;28;20544;-60
2023/05/22 03:30:03;;;;;;;0.70;0.70;;;;;;;3.59;100.00;99200.97;4833857;28;21524;-59
2023/05/22 03:32:37;;;;;;;2.45;0.60;;;;;;;3.89;100.00;99231.81;4841540;28;20474;-58
2023/05/22 03:35:18;;;;;;;1.88;0.60;;;;;;;4.14;100.00;99241.13;4833766;28;20058;-59
2023/05/22 03:37:48;;;;;;;1.33;0.60;;;;;;;4.27;100.00;99243.63;4824735;28;20073;-60
2023/05/22 03:40:19;;;;;;;2.92;0.65;;;;;;;3.54;100.00;99125.22;4834425;28;20050;-60
2023/05/22 03:42:50;;;;;;;0.80;0.70;;;;;;;4.12;99.39;99251.50;4833942;28;20221;-60
2023/05/22 03:45:20;;;;;;;2.60;0.70;;;;;;;4.08;100.00;99242.03;4834294;28;20164;-61
2023/05/22 03:47:56;;;;;;;3.65;0.70;;;;;;;4.11;100.00;99247.19;4835232;28;20050;-61
2023/05/22 03:50:31;;;;;;;0.63;0.60;;;;;;;4.06;100.00;99249.78;4825077;28;20046;-58
2023/05/22 03:53:09;;;;;;;1.38;0.88;;;;;;;4.20;100.00;99252.31;4833911;28;20064;-60
2023/05/22 03:55:39;;;;;;;1.63;0.90;;;;;;;4.36;100.00;99258.22;4824122;28;20054;-60
2023/05/22 03:58:10;;;;;;;0.50;0.50;;;;;;;4.36;100.00;99254.78;4833113;28;20433;-57
2023/05/22 04:00:41;;;;;;;1.20;0.65;;;;;;;4.35;100.00;99259.09;4833169;28;20230;-60
2023/05/22 04:03:12;;;;;;;0.47;0.47;;;;;;;4.44;100.00;99263.31;4834677;28;20042;-61
2023/05/22 04:05:44;;;;;;;2.97;0.70;;;;;;;4.27;100.00;99233.28;4833687;28;20741;-60
2023/05/22 04:08:18;;;;;;;2.17;0.77;;;;;;;4.54;100.00;99257.22;4825426;28;20071;-58
2023/05/22 04:10:49;;;;;;;1.95;0.60;;;;;;;4.72;99.75;99282.94;4833338;28;20058;-59
2023/05/22 04:13:20;;;;;;;3.03;0.63;;;;;;;4.55;97.02;99238.25;4834391;28;20725;-61
2023/05/22 04:15:53;;;;;;;0.98;0.77;;;;;;;4.91;97.57;99262.06;4832723;28;20133;-59
2023/05/22 04:18:27;;;;;;;0.65;0.60;;;;;;;4.65;97.44;99213.16;4826370;28;20060;-60
2023/05/22 04:21:05;;;;;;;1.52;1.10;;;;;;;4.96;97.16;99265.47;4833876;28;20477;-59
2023/05/22 04:23:42;;;;;;;1.42;0.73;;;;;;;4.84;95.04;99291.47;4821657;28;20139;-59
2023/05/22 04:26:13;;;;;;;0.77;0.60;;;;;;;4.76;98.46;99283.78;4832757;28;20046;-59
2023/05/22 04:28:44;;;;;;;0.88;0.63;;;;;;;4.61;96.67;99284.75;4831676;28;20074;-60
2023/05/22 04:31:21;;;;;;;2.15;0.90;;;;;;;4.40;97.88;99290.09;4833311;28;20325;-60
2023/05/22 04:33:53;;;;;;;1.65;0.82;;;;;;;4.21;97.91;99292.78;4833482;28;20058;-59
2023/05/22 04:36:28;;;;;;;1.70;0.60;;;;;;;4.23;99.60;99297.97;4828500;28;20051;-58
2023/05/22 04:38:59;;;;;;;0.70;0.70;;;;;;;4.14;100.00;99293.69;4833600;28;20058;-59
2023/05/22 04:41:33;;;;;;;1.17;0.60;;;;;;;4.04;100.00;99286.84;4833387;28;20377;-60
2023/05/22 04:44:09;;;;;;;1.45;0.65;;;;;;;4.12;100.00;99295.47;4828534;28;21036;-60
2023/05/22 04:46:42;;;;;;;4.70;1.02;;;;;;;4.19;100.00;99307.44;4833034;28;20046;-60
2023/05/22 04:49:13;;;;;;;1.75;0.90;;;;;;;4.01;100.00;99303.25;4829537;28;20063;-59
2023/05/22 04:51:45;;;;;;;0.85;0.57;;;;;;;3.97;100.00;99316.19;4839090;28;20125;-58
2023/05/22 04:54:18;;;;;;;1.58;0.70;;;;;;;3.83;100.00;99314.53;4831649;28;20050;-59
2023/05/22 04:56:55;;;;;;;3.90;0.80;;;;;;;3.95;100.00;99323.13;4832611;28;20074;-58
2023/05/22 04:59:30;;;;;;;1.02;0.70;;;;;;;3.92;99.26;99323.09;4823052;28;20077;-57
2023/05/22 05:02:01;;;;;;;1.63;0.60;;;;;;;3.78;99.72;99336.97;4833427;28;20413;-59
2023/05/22 05:04:43;;;;;;;1.83;0.90;;;;;;;3.78;99.91;99305.94;4831365;28;20085;-58
2023/05/22 05:07:18;;;;;;;1.73;0.60;;;;;;;4.04;98.78;99331.69;4822267;28;20061;-58
2023/05/22 05:09:52;;;;;;;6.60;0.88;;;;;;;4.09;100.00;99316.13;4832187;28;20105;-57
2023/05/22 05:12:28;;;;;;;4.03;0.90;;;;;;;4.30;98.95;99330.69;4832756;28;20054;-58
2023/05/22 05:15:01;;;;;;;1.33;0.75;;;;;;;4.21;97.95;99347.09;4822241;28;20434;-61
2023/05/22 05:17:35;;;;;;;2.75;0.93;;;;;;;4.05;99.10;99340.28;4822704;28;20150;-59
2023/05/22 05:20:13;;;;;;;3.92;1.00;;;;;;;4.07;99.52;99343.75;4833480;28;20052;-59
2023/05/22 05:22:51;;;;;;;2.25;0.73;;;;;;;4.10;99.38;99338.56;4821788;28;20568;-60
2023/05/22 05:25:30;;;;;;;0.77;0.55;;;;;;;3.86;99.46;99349.84;4822024;28;20092;-59
2023/05/22 05:28:01;;;;;;;3.55;1.50;;;;;;;3.91;100.00;99357.59;4832037;28;20077;-58
2023/05/22 05:30:41;;;;;;;4.18;0.90;;;;;;;3.89;100.00;99353.28;4832436;28;20062;-61
2023/05/22 05:33:15;;;;;;;2.22;0.70;;;;;;;3.80;100.00;99363.66;4820522;28;20161;-60
2023/05/22 05:35:53;;;;;;;1.85;0.60;;;;;;;3.62;100.00;99355.94;4821541;28;20046;-59
2023/05/22 05:38:29;;;;;;;0.60;0.55;;;;;;;3.54;100.00;99347.38;4828321;28;20060;-60
2023/05/22 05:41:00;;;;;;;2.42;0.95;;;;;;;3.40;100.00;99365.50;4832329;28;20046;-60
2023/05/22 05:43:33;;;;;;;4.32;0.80;;;;;;;3.50;100.00;99376.66;4831475;28;20054;-60
2023/05/22 05:46:12;;;;;;;1.05;0.70;;;;;;;3.24;100.00;99329.38;4827985;28;20066;-58
2023/05/22 05:48:44;;;;;;;2.65;0.77;;;;;;;3.47;100.00;99367.19;4828350;28;20142;-59
2023/05/22 05:51:21;;;;;;;2.20;0.80;;;;;;;3.40;100.00;99371.50;4835363;28;20518;-59
2023/05/22 05:53:56;;;;;;;4.18;0.95;;;;;;;3.06;100.00;99307.88;4831099;28;20050;-58
2023/05/22 05:56:28;;;;;;;2.15;0.80;;;;;;;3.41;100.00;99378.38;4821531;28;20061;-59
2023/05/22 05:59:09;;;;;;;2.40;0.68;;;;;;;3.37;100.00;99380.97;4831931;28;20065;-59
2023/05/22 06:05:08;;;;;;;3.33;0.70;;;;;;;3.36;100.00;99380.09;4843503;28;20080;-59
2023/05/22 06:07:39;;;;;;;2.20;0.73;;;;;;;3.29;100.00;99388.72;4824907;28;20057;-58
2023/05/22 06:10:15;;;;;;;5.90;1.20;;;;;;;3.27;100.00;99395.63;4826926;28;20054;-60
2023/05/22 06:12:45;;;;;;;2.22;0.77;;;;;;;3.26;100.00;99399.06;4821899;28;20049;-60
2023/05/22 06:15:16;;;;;;;0.82;0.60;;;;;;;3.19;100.00;99392.16;4831877;28;20046;-59
2023/05/22 06:17:47;;;;;;;3.38;1.13;;;;;;;3.30;100.00;99405.09;4832502;28;20077;-59
2023/05/22 06:20:26;;;;;;;2.13;0.88;;;;;;;3.29;100.00;99405.94;4831321;28;20579;-58
2023/05/22 06:23:03;;;;;;;4.10;1.00;;;;;;;3.31;100.00;99412.81;4820268;28;20135;-60
2023/05/22 06:25:38;;;;;;;5.10;0.80;;;;;;;3.29;100.00;99403.34;4828764;28;20668;-59
2023/05/22 06:28:10;;;;;;;2.72;0.90;;;;;;;3.26;100.00;99424.88;4831262;28;20789;-59
2023/05/22 06:30:41;;;;;;;1.50;0.93;;;;;;;3.23;100.00;99417.13;4828753;28;20058;-58
2023/05/22 06:33:15;;;;;;;1.88;0.70;;;;;;;3.17;100.00;99419.69;4824516;28;20098;-59
2023/05/22 06:35:46;;;;;;;2.15;0.80;;;;;;;3.19;100.00;99418.00;4831362;28;20569;-59
2023/05/22 06:38:18;;;;;;;4.13;0.85;;;;;;;3.23;100.00;99409.41;4831328;28;20397;-58
2023/05/22 06:40:51;;;;;;;4.35;1.13;;;;;;;3.18;100.00;99418.88;4830049;28;20062;-60
2023/05/22 06:43:31;;;;;;;3.42;1.00;;;;;;;3.09;100.00;99421.44;4824868;28;20051;-58
2023/05/22 06:46:19;;;;;;;2.47;0.98;;;;;;;3.01;100.00;99424.88;4819824;28;20396;-59
2023/05/22 06:48:55;;;;;;;3.95;0.95;;;;;;;3.07;100.00;99428.31;4824552;28;20049;-59
2023/05/22 06:51:25;;;;;;;2.75;0.93;;;;;;;3.08;100.00;99419.72;4830014;28;20054;-60
2023/05/22 06:54:02;;;;;;;3.90;0.98;;;;;;;3.13;100.00;99431.75;4832428;28;20594;-58
2023/05/22 06:56:34;;;;;;;4.68;0.90;;;;;;;3.12;100.00;99422.31;4831366;28;20058;-58
2023/05/22 06:59:05;;;;;;;5.72;1.25;;;;;;;3.14;100.00;99427.44;4820556;28;21049;-60
2023/05/22 07:01:39;;;;;;;1.85;0.70;;;;;;;3.14;100.00;99430.03;4834036;28;20137;-59
2023/05/22 07:04:14;;;;;;;1.98;0.65;;;;;;;3.21;100.00;99431.75;4834312;28;20507;-59
2023/05/22 07:06:45;;;;;;;0.75;0.70;;;;;;;3.19;100.00;99433.47;4829426;28;20138;-59
2023/05/22 07:09:19;;;;;;;3.25;1.05;;;;;;;3.14;100.00;99440.38;4834151;28;20161;-59
2023/05/22 07:11:54;;;;;;;1.65;0.90;;;;;;;3.15;100.00;99449.84;4834564;28;20069;-59
2023/05/22 07:14:25;;;;;;;1.65;0.70;;;;;;;3.03;100.00;99440.38;4824221;28;20046;-58
2023/05/22 07:16:58;;;;;;;1.70;0.70;;;;;;;3.08;100.00;99450.69;4833834;28;20693;-60
2023/05/22 07:19:29;;;;;;;1.60;0.80;;;;;;;3.05;100.00;99445.53;4833873;28;20053;-59
2023/05/22 07:22:00;;;;;;;16.13;4.75;;;;;;;3.01;100.00;99453.25;4831132;28;20101;-60
2023/05/22 07:24:31;;;;;;;4.75;1.20;;;;;;;2.97;100.00;99459.28;4833575;28;20042;-60
2023/05/22 07:27:05;;;;;;;5.50;1.73;;;;;;;2.79;100.00;99438.59;4834283;28;20654;-60
2023/05/22 07:29:36;;;;;;;8.73;3.20;;;;;;;2.77;100.00;99445.47;4824561;28;20062;-59
2023/05/22 07:32:07;;;;;;;2.40;0.80;;;;;;;2.86;100.00;99450.66;4835140;28;20541;-59
2023/05/22 07:34:43;;;;;;;2.45;0.70;;;;;;;2.80;100.00;99445.50;4834535;28;20074;-59
2023/05/22 07:37:40;;;;;;;;;;;;;;;;;;;;;
2023/05/22 07:40:14;;;;;;;3.53;0.80;;;;;;;2.71;100.00;99456.63;4823317;28;20101;-60
2023/05/22 07:42:56;;;;;;;2.10;0.85;;;;;;;2.72;100.00;99463.53;4824871;28;21184;-60
2023/05/22 07:45:29;;;;;;;3.67;1.20;;;;;;;2.73;100.00;99464.41;4834770;28;20050;-59
2023/05/22 07:48:03;;;;;;;2.63;1.30;;;;;;;2.71;100.00;99466.09;4834075;28;20062;-59
2023/05/22 07:50:33;;;;;;;0.90;0.90;;;;;;;2.69;100.00;99473.81;4832440;28;20122;-58
2023/05/22 07:53:12;;;;;;;3.53;1.00;;;;;;;2.68;100.00;99481.59;4837578;28;20067;-59
2023/05/22 07:55:43;;;;;;;2.08;0.90;;;;;;;2.65;100.00;99476.44;4831199;28;20516;-58
2023/05/22 07:58:16;;;;;;;2.80;0.80;;;;;;;2.42;100.00;99447.97;4838426;28;20048;-58
2023/05/22 08:00:53;;;;;;;3.00;0.80;;;;;;;2.57;100.00;99484.09;4833830;28;20058;-58
2023/05/22 08:03:27;;;;;;;3.10;0.90;;;;;;;2.62;100.00;99481.53;4831500;28;20091;-60
2023/05/22 08:05:58;;;;;;;4.85;1.20;;;;;;;2.63;100.00;99483.28;4833902;28;20116;-58
2023/05/22 08:08:32;;;;;;;5.47;0.90;;;;;;;2.67;100.00;99490.16;4833763;28;20050;-60
2023/05/22 08:11:06;;;;;;;2.78;0.77;;;;;;;2.59;100.00;99478.09;4833698;28;21242;-59
2023/05/22 08:13:43;;;;;;;1.48;0.98;;;;;;;2.54;100.00;99484.97;4822580;28;20177;-60
2023/05/22 08:16:14;;;;;;;7.53;0.95;;;;;;;2.63;100.00;99496.19;4829414;28;20608;-60
2023/05/22 08:18:45;;;;;;;4.45;1.10;;;;;;;2.66;100.00;99503.94;4834280;28;20718;-58
2023/05/22 08:21:16;;;;;;;5.05;1.30;;;;;;;2.67;100.00;99497.91;4833954;28;20144;-59
2023/05/22 08:23:47;;;;;;;3.20;0.93;;;;;;;2.65;100.00;99497.06;4833880;28;20058;-60
2023/05/22 08:26:18;;;;;;;2.28;0.93;;;;;;;2.63;100.00;99501.34;4833768;28;20748;-58
2023/05/22 08:28:51;;;;;;;2.78;0.90;;;;;;;2.67;100.00;99510.78;4832145;28;21385;-59
2023/05/22 08:31:23;;;;;;;1.55;0.90;;;;;;;2.71;100.00;99512.53;4833134;28;20192;-59
2023/05/22 08:34:00;;;;;;;2.70;0.80;;;;;;;2.69;100.00;99503.94;4828277;28;20048;-60
2023/05/22 08:36:34;;;;;;;2.33;1.02;;;;;;;2.72;100.00;99511.66;4833052;28;20493;-58
2023/05/22 08:39:06;;;;;;;1.58;0.80;;;;;;;2.71;100.00;99507.38;4823860;28;20049;-61
2023/05/22 08:41:39;;;;;;;3.00;1.08;;;;;;;2.46;100.00;99471.19;4833379;28;20486;-59
2023/05/22 08:44:14;;;;;;;3.15;0.95;;;;;;;2.74;100.00;99528.03;4833148;28;20105;-60
2023/05/22 08:46:48;;;;;;;4.25;1.05;;;;;;;2.71;100.00;99512.53;4822621;28;20749;-61
2023/05/22 08:49:21;;;;;;;4.70;1.00;;;;;;;2.76;100.00;99510.84;4832744;28;20473;-60
2023/05/22 08:51:57;;;;;;;7.07;1.10;;;;;;;2.75;100.00;99514.28;4832899;28;21228;-61
2023/05/22 08:54:37;;;;;;;3.50;1.00;;;;;;;2.76;100.00;99518.56;4822914;28;20054;-59
2023/05/22 08:57:11;;;;;;;6.55;1.02;;;;;;;2.77;100.00;99522.88;4823298;28;20054;-61
2023/05/22 08:59:46;;;;;;;6.43;1.10;;;;;;;2.74;100.00;99512.53;4832285;28;20100;-60
2023/05/22 09:02:18;;;;;;;2.35;0.80;;;;;;;2.78;100.00;99515.16;4820433;28;20077;-61
2023/05/22 09:04:54;;;;;;;4.38;0.93;;;;;;;2.77;100.00;99528.91;4832493;28;20423;-61
2023/05/22 09:07:26;;;;;;;3.42;0.80;;;;;;;2.57;100.00;99500.47;4825535;28;20056;-58
2023/05/22 09:09:58;;;;;;;3.63;1.00;;;;;;;2.63;100.00;99509.09;4832839;28;20061;-59
2023/05/22 09:12:29;;;;;;;2.20;0.80;;;;;;;2.67;100.00;99532.31;4831721;28;20493;-59
2023/05/22 09:15:09;;;;;;;4.05;1.10;;;;;;;2.69;100.00;99529.72;4832745;28;20082;-61
2023/05/22 09:18:01;;;;;;;2.67;0.90;;;;;;;2.66;100.00;99530.56;4822396;28;20060;-60
2023/05/22 09:20:47;;;;;;;2.15;1.02;;;;;;;2.45;100.00;99500.41;4820424;28;20053;-59
2023/05/22 09:23:19;;;;;;;3.20;0.85;;;;;;;2.74;100.00;99543.50;4831952;28;20177;-61
2023/05/22 09:25:51;;;;;;;3.40;1.00;;;;;;;2.78;100.00;99560.72;4832678;28;20159;-59
2023/05/22 09:28:24;;;;;;;4.43;1.17;;;;;;;2.71;100.00;99553.81;4831381;28;20152;-61
2023/05/22 09:31:01;;;;;;;6.00;1.13;;;;;;;2.70;100.00;99546.94;4820496;28;20109;-58
2023/05/22 09:33:33;;;;;;;4.85;1.10;;;;;;;2.67;100.00;99546.91;4832059;28;20347;-62
2023/05/22 09:36:16;;;;;;;2.85;1.17;;;;;;;2.69;100.00;99560.69;4819720;28;20136;-60
2023/05/22 09:38:50;;;;;;;6.53;1.70;;;;;;;2.65;100.00;99564.13;4831927;28;20159;-60
2023/05/22 09:41:26;;;;;;;5.85;1.42;;;;;;;2.69;100.00;99577.00;4832103;28;20058;-59
2023/05/22 09:43:57;;;;;;;7.18;1.73;;;;;;;2.65;100.00;99572.72;4821920;28;20090;-61
2023/05/22 09:46:41;;;;;;;11.65;1.60;;;;;;;2.64;100.00;99572.69;4831978;28;20081;-57
2023/05/22 09:49:13;;;;;;;6.68;1.70;;;;;;;2.70;100.00;99588.22;4821918;28;20379;-57
2023/05/22 09:51:48;;;;;;;6.97;1.70;;;;;;;2.67;100.00;99577.84;4821901;28;20046;-58
2023/05/22 09:54:21;;;;;;;6.43;1.90;;;;;;;2.76;100.00;99589.09;4832660;28;20050;-58
2023/05/22 09:57:00;;;;;;;5.55;1.50;;;;;;;2.71;100.00;99574.44;4827435;28;24514;-60
2023/05/22 09:59:32;;;;;;;6.30;1.15;;;;;;;2.74;100.00;99590.78;4821589;28;20050;-60
2023/05/22 10:02:06;;;;;;;6.20;1.50;;;;;;;2.72;100.00;99591.63;4832048;28;20834;-59
2023/05/22 10:04:39;;;;;;;9.98;1.38;;;;;;;2.57;100.00;99561.47;4820022;28;20057;-61
2023/05/22 10:07:12;;;;;;;9.48;1.30;;;;;;;2.79;100.00;99598.56;4831166;28;20073;-60
2023/05/22 10:09:50;;;;;;;7.57;1.70;;;;;;;2.80;100.00;99602.88;4832430;28;20149;-58
2023/05/22 10:12:24;;;;;;;4.97;1.48;;;;;;;2.72;100.00;99591.63;4822204;28;20053;-58
2023/05/22 10:14:59;;;;;;;7.35;1.50;;;;;;;2.76;100.00;99604.56;4820705;28;20077;-59
2023/05/22 10:17:36;;;;;;;7.10;2.08;;;;;;;2.79;100.00;99614.03;4831365;28;20070;-61
2023/05/22 10:20:14;;;;;;;5.25;1.30;;;;;;;2.57;100.00;99575.25;4821751;28;20562;-58
2023/05/22 10:22:52;;;;;;;5.68;1.30;;;;;;;2.76;100.00;99614.03;4820500;28;20057;-60
2023/05/22 10:25:27;;;;;;;8.32;1.70;;;;;;;2.84;100.00;99632.13;4828425;28;20572;-59
2023/05/22 10:28:00;;;;;;;4.50;1.52;;;;;;;2.76;100.00;99634.66;4831719;28;20057;-58
2023/05/22 10:30:42;;;;;;;5.30;1.80;;;;;;;2.81;100.00;99643.28;4829797;28;20071;-59
2023/05/22 10:33:17;;;;;;;;;;;;;;;2.85;100.00;99644.19;4831035;28;20497;-58
2023/05/22 10:35:54;;;;;;;5.20;1.67;;;;;;;2.83;100.00;99651.06;4830359;28;20346;-60
2023/05/22 10:38:51;;;;;;;7.00;1.48;;;;;;;2.81;100.00;99645.88;4824639;28;20050;-58
2023/05/22 10:41:24;;;;;;;6.97;1.85;;;;;;;2.86;100.00;99657.06;4820219;28;20069;-61
2023/05/22 10:43:58;;;;;;;6.03;1.50;;;;;;;2.84;100.00;99658.78;4820896;28;20120;-60
2023/05/22 10:46:34;;;;;;;6.10;1.88;;;;;;;2.82;100.00;99655.31;4828597;28;20801;-59
2023/05/22 10:49:07;;;;;;;6.88;1.33;;;;;;;2.84;100.00;99669.09;4818892;28;20062;-60
2023/05/22 10:51:41;;;;;;;10.25;1.88;;;;;;;2.86;100.00;99659.66;4828053;28;20344;-59
2023/05/22 10:54:12;;;;;;;10.48;1.52;;;;;;;2.87;100.00;99663.97;4841962;28;20539;-60
2023/05/22 10:56:44;;;;;;;7.90;2.08;;;;;;;2.84;100.00;99658.78;4831433;28;21397;-57
2023/05/22 10:59:18;;;;;;;7.97;1.40;;;;;;;2.86;100.00;99662.25;4820752;28;20061;-60
2023/05/22 11:02:01;;;;;;;6.55;1.45;;;;;;;2.87;100.00;99669.16;4830650;28;20046;-60
2023/05/22 11:04:40;;;;;;;11.35;2.00;;;;;;;2.90;100.00;99669.16;4820515;28;20070;-58
2023/05/22 11:07:13;;;;;;;5.15;1.40;;;;;;;2.84;100.00;99679.44;4820271;28;20046;-60
2023/05/22 11:09:46;;;;;;;9.43;1.80;;;;;;;2.85;100.00;99670.84;4824031;28;20467;-58
2023/05/22 11:12:23;;;;;;;10.90;2.60;;;;;;;2.86;100.00;99667.41;4831987;28;20057;-60
2023/05/22 11:14:59;;;;;;;11.30;2.47;;;;;;;2.86;100.00;99675.13;4825269;28;20182;-61
2023/05/22 11:17:31;;;;;;;9.13;2.50;;;;;;;2.91;100.00;99676.03;4829743;28;20065;-61
2023/05/22 11:20:06;;;;;;;9.15;2.30;;;;;;;2.87;100.00;99669.16;4830671;28;20050;-58
2023/05/22 11:22:43;;;;;;;9.07;1.73;;;;;;;3.00;100.00;99686.41;4821226;28;20058;-58
2023/05/22 11:25:18;;;;;;;9.25;2.15;;;;;;;3.06;100.00;99679.53;4826357;28;20051;-59
2023/05/22 11:27:50;;;;;;;13.93;1.90;;;;;;;3.05;100.00;99685.56;4829922;28;20450;-59
2023/05/22 11:30:29;;;;;;;7.15;1.60;;;;;;;2.86;100.00;99667.41;4830658;28;20068;-61
2023/05/22 11:33:04;;;;;;;7.30;1.63;;;;;;;3.04;100.00;99697.59;4820130;28;20049;-60
2023/05/22 11:35:38;;;;;;;9.60;2.03;;;;;;;2.98;100.00;99707.91;4819416;28;20631;-59
2023/05/22 11:38:11;;;;;;;7.05;2.30;;;;;;;3.04;100.00;99713.09;4830180;28;20125;-58
2023/05/22 11:40:42;;;;;;;8.48;1.95;;;;;;;3.07;100.00;99701.91;4830867;28;20073;-60
2023/05/22 11:43:14;;;;;;;11.75;3.47;;;;;;;3.10;100.00;99720.00;4830205;28;20519;-60
2023/05/22 11:45:47;;;;;;;10.07;3.63;;;;;;;3.12;100.00;99720.88;4831141;28;20051;-61
2023/05/22 11:48:21;;;;;;;11.07;2.92;;;;;;;3.14;100.00;99729.47;4835007;28;20054;-59
2023/05/22 11:50:54;;;;;;;10.18;2.83;;;;;;;3.16;100.00;99727.78;4835048;28;20042;-57
2023/05/22 11:53:25;;;;;;;10.00;2.20;;;;;;;3.14;100.00;99708.84;4824983;28;20056;-61
2023/05/22 11:55:56;;;;;;;5.78;1.88;;;;;;;3.21;100.00;99711.44;4833933;28;20831;-58
2023/05/22 11:58:32;;;;;;;6.68;1.80;;;;;;;3.27;100.00;99720.06;4833870;28;20089;-60
2023/05/22 12:01:04;;;;;;;10.38;2.17;;;;;;;3.28;100.00;99720.09;4833119;28;20058;-58
2023/05/22 12:03:35;;;;;;;8.52;1.65;;;;;;;3.26;100.00;99729.53;4823516;28;20043;-60
2023/05/22 12:06:11;;;;;;;11.20;1.52;;;;;;;3.12;100.00;99714.00;4834150;28;20050;-60
2023/05/22 12:08:46;;;;;;;8.23;1.45;;;;;;;3.23;100.00;99724.38;4823904;28;21024;-59
2023/05/22 12:11:18;;;;;;;7.25;1.77;;;;;;;3.22;100.00;99728.69;4833348;28;20057;-58
2023/05/22 12:13:50;;;;;;;7.18;1.35;;;;;;;3.20;100.00;99719.22;4833657;28;20050;-60
2023/05/22 12:16:24;;;;;;;7.20;1.60;;;;;;;3.23;100.00;99729.53;4833950;28;20069;-59
2023/05/22 12:18:55;;;;;;;12.82;2.10;;;;;;;3.23;100.00;99729.53;4824116;28;20123;-60
2023/05/22 12:21:28;;;;;;;5.85;1.45;;;;;;;3.26;100.00;99728.69;4834005;28;20058;-60
2023/05/22 12:24:07;;;;;;;5.47;1.38;;;;;;;3.03;100.00;99686.41;4834115;28;20050;-60
2023/05/22 12:26:40;;;;;;;8.07;1.85;;;;;;;3.32;100.00;99727.00;4824172;28;20069;-58
2023/05/22 12:29:11;;;;;;;6.53;1.70;;;;;;;3.39;100.00;99722.72;4832434;28;20057;-61
2023/05/22 12:31:45;;;;;;;4.22;1.48;;;;;;;3.37;100.00;99717.56;4833363;28;20116;-58
2023/05/22 12:34:20;;;;;;;7.32;1.30;;;;;;;3.35;100.00;99721.84;4823765;28;20054;-59
2023/05/22 12:37:18;;;;;;;7.63;1.20;;;;;;;3.45;100.00;99726.19;4822019;28;20058;-61
2023/05/22 12:39:58;;;;;;;7.60;1.52;;;;;;;3.11;100.00;99672.69;4820674;28;20056;-60
2023/05/22 12:42:30;;;;;;;7.45;1.30;;;;;;;3.44;100.00;99727.06;4833617;28;20112;-60
2023/05/22 12:45:01;;;;;;;7.95;2.95;;;;;;;3.35;100.00;99719.25;4832982;28;20081;-60